createdAt,value
2017-04-13T00:00:23.695Z,0
2017-04-13T00:00:49.777Z,0
2017-04-13T00:01:15.863Z,0
2017-04-13T00:01:41.941Z,0
2017-04-13T00:02:08.022Z,0
2017-04-13T00:02:34.107Z,0
2017-04-13T00:03:00.186Z,0
2017-04-13T00:03:26.314Z,0
2017-04-13T00:03:52.419Z,0
2017-04-13T00:04:18.502Z,0
2017-04-13T00:04:44.584Z,0
2017-04-13T00:05:10.666Z,0
2017-04-13T00:05:36.747Z,0
2017-04-13T00:06:02.829Z,0
2017-04-13T00:06:28.910Z,0
2017-04-13T00:06:55.015Z,0
2017-04-13T00:07:21.099Z,0
2017-04-13T00:07:47.203Z,0
2017-04-13T00:08:13.307Z,0
2017-04-13T00:08:39.413Z,0
2017-04-13T00:09:05.517Z,0
2017-04-13T00:09:31.620Z,0
2017-04-13T00:09:57.727Z,0
2017-04-13T00:10:23.809Z,0
2017-04-13T00:10:49.890Z,0
2017-04-13T00:11:15.973Z,0
2017-04-13T00:11:42.054Z,0
2017-04-13T00:12:08.138Z,0
2017-04-13T00:12:34.242Z,0
2017-04-13T00:13:00.343Z,0
2017-04-13T00:13:26.425Z,0
2017-04-13T00:13:52.530Z,0
2017-04-13T00:14:18.635Z,0
2017-04-13T00:14:44.740Z,0
2017-04-13T00:15:10.844Z,0
2017-04-13T00:15:36.926Z,0
2017-04-13T00:16:03.007Z,0
2017-04-13T00:16:29.238Z,0
2017-04-13T00:16:55.320Z,0
2017-04-13T00:17:21.448Z,0
2017-04-13T00:17:47.565Z,0
2017-04-13T00:18:13.649Z,0
2017-04-13T00:18:39.734Z,0
2017-04-13T00:19:05.864Z,0
2017-04-13T00:19:31.947Z,0
2017-04-13T00:19:58.032Z,0
2017-04-13T00:20:24.137Z,0
2017-04-13T00:20:50.344Z,0
2017-04-13T00:21:16.473Z,0
2017-04-13T00:21:42.605Z,0
2017-04-13T00:22:09.123Z,0
2017-04-13T00:22:35.227Z,0
2017-04-13T00:23:01.308Z,0
2017-04-13T00:23:27.392Z,0
2017-04-13T00:23:53.907Z,0
2017-04-13T00:24:20.039Z,0
2017-04-13T00:24:46.149Z,0
2017-04-13T00:25:12.229Z,0
2017-04-13T00:25:38.334Z,0
2017-04-13T00:26:04.440Z,0
2017-04-13T00:26:30.547Z,0
2017-04-13T00:26:56.627Z,0
2017-04-13T00:27:22.778Z,0
2017-04-13T00:27:48.905Z,0
2017-04-13T00:28:15.054Z,0
2017-04-13T00:28:41.138Z,0
2017-04-13T00:29:07.266Z,0
2017-04-13T00:29:33.393Z,0
2017-04-13T00:29:59.498Z,0
2017-04-13T00:30:25.577Z,0
2017-04-13T00:30:51.686Z,0
2017-04-13T00:31:17.793Z,0
2017-04-13T00:31:43.878Z,0
2017-04-13T00:32:10.057Z,0
2017-04-13T00:32:36.143Z,0
2017-04-13T00:33:02.290Z,0
2017-04-13T00:33:28.399Z,0
2017-04-13T00:33:54.549Z,0
2017-04-13T00:34:20.630Z,0
2017-04-13T00:34:46.736Z,0
2017-04-13T00:35:12.840Z,0
2017-04-13T00:35:38.923Z,0
2017-04-13T00:36:05.004Z,0
2017-04-13T00:36:31.088Z,0
2017-04-13T00:36:57.170Z,0
2017-04-13T00:37:23.250Z,0
2017-04-13T00:37:49.332Z,0
2017-04-13T00:38:15.415Z,0
2017-04-13T00:38:41.521Z,0
2017-04-13T00:39:07.655Z,0
2017-04-13T00:39:33.732Z,0
2017-04-13T00:39:59.834Z,0
2017-04-13T00:40:26.042Z,0
2017-04-13T00:40:52.143Z,0
2017-04-13T00:41:18.371Z,0
2017-04-13T00:41:44.525Z,0
2017-04-13T00:42:10.632Z,0
2017-04-13T00:42:36.712Z,0
2017-04-13T00:43:02.846Z,0
2017-04-13T00:43:28.949Z,0
2017-04-13T00:43:55.075Z,0
2017-04-13T00:44:21.180Z,0
2017-04-13T00:44:47.261Z,0
2017-04-13T00:45:13.366Z,0
2017-04-13T00:45:39.450Z,0
2017-04-13T00:46:05.533Z,0
2017-04-13T00:46:31.615Z,0
2017-04-13T00:46:57.721Z,0
2017-04-13T00:47:23.825Z,0
2017-04-13T00:47:49.934Z,0
2017-04-13T00:48:16.111Z,0
2017-04-13T00:48:42.215Z,0
2017-04-13T00:49:08.322Z,0
2017-04-13T00:49:34.428Z,0
2017-04-13T00:50:00.514Z,0
2017-04-13T00:50:26.595Z,0
2017-04-13T00:50:52.677Z,0
2017-04-13T00:51:18.758Z,0
2017-04-13T00:51:44.864Z,0
2017-04-13T00:52:10.969Z,0
2017-04-13T00:52:37.076Z,0
2017-04-13T00:53:03.254Z,0
2017-04-13T00:53:29.338Z,0
2017-04-13T00:53:55.542Z,0
2017-04-13T00:54:21.624Z,0
2017-04-13T00:54:47.750Z,0
2017-04-13T00:55:13.855Z,0
2017-04-13T00:55:39.936Z,0
2017-04-13T00:56:06.016Z,0
2017-04-13T00:56:32.100Z,0
2017-04-13T00:56:58.182Z,0
2017-04-13T00:57:24.265Z,0
2017-04-13T00:57:50.371Z,0
2017-04-13T00:58:16.475Z,0
2017-04-13T00:58:42.581Z,0
2017-04-13T00:59:08.711Z,0
2017-04-13T00:59:34.818Z,0
2017-04-13T01:00:00.909Z,0
2017-04-13T01:00:26.984Z,0
2017-04-13T01:00:53.065Z,0
2017-04-13T01:01:19.168Z,0
2017-04-13T01:01:45.251Z,0
2017-04-13T01:02:11.337Z,0
2017-04-13T01:02:37.420Z,0
2017-04-13T01:03:03.503Z,0
2017-04-13T01:03:29.608Z,0
2017-04-13T01:03:55.689Z,0
2017-04-13T01:04:21.774Z,0
2017-04-13T01:04:47.859Z,0
2017-04-13T01:05:13.943Z,0
2017-04-13T01:05:40.047Z,0
2017-04-13T01:06:06.154Z,0
2017-04-13T01:06:32.236Z,0
2017-04-13T01:06:58.341Z,0
2017-04-13T01:07:24.425Z,0
2017-04-13T01:07:50.511Z,0
2017-04-13T01:08:16.588Z,0
2017-04-13T01:08:42.670Z,0
2017-04-13T01:09:08.774Z,0
2017-04-13T01:09:34.855Z,0
2017-04-13T01:10:00.937Z,0
2017-04-13T01:10:27.039Z,0
2017-04-13T01:10:53.143Z,0
2017-04-13T01:11:19.227Z,0
2017-04-13T01:11:45.310Z,0
2017-04-13T01:12:11.416Z,0
2017-04-13T01:12:37.550Z,0
2017-04-13T01:13:03.632Z,0
2017-04-13T01:13:29.715Z,0
2017-04-13T01:13:55.798Z,0
2017-04-13T01:14:21.880Z,0
2017-04-13T01:14:47.962Z,0
2017-04-13T01:15:14.043Z,0
2017-04-13T01:15:40.126Z,0
2017-04-13T01:16:06.206Z,0
2017-04-13T01:16:32.291Z,0
2017-04-13T01:16:58.371Z,0
2017-04-13T01:17:24.455Z,0
2017-04-13T01:17:50.536Z,0
2017-04-13T01:18:16.620Z,0
2017-04-13T01:18:42.700Z,0
2017-04-13T01:19:08.782Z,0
2017-04-13T01:19:34.886Z,0
2017-04-13T01:20:00.969Z,0
2017-04-13T01:20:27.074Z,0
2017-04-13T01:20:53.177Z,0
2017-04-13T01:21:19.258Z,0
2017-04-13T01:21:45.367Z,0
2017-04-13T01:22:11.468Z,0
2017-04-13T01:22:37.573Z,0
2017-04-13T01:23:03.654Z,0
2017-04-13T01:23:29.782Z,0
2017-04-13T01:23:56.036Z,0
2017-04-13T01:24:22.119Z,0
2017-04-13T01:24:48.269Z,0
2017-04-13T01:25:14.356Z,0
2017-04-13T01:25:40.433Z,0
2017-04-13T01:26:06.514Z,0
2017-04-13T01:26:32.596Z,0
2017-04-13T01:26:58.681Z,0
2017-04-13T01:27:24.763Z,0
2017-04-13T01:27:50.846Z,0
2017-04-13T01:28:16.952Z,0
2017-04-13T01:28:43.080Z,0
2017-04-13T01:29:09.186Z,0
2017-04-13T01:29:35.290Z,0
2017-04-13T01:30:01.397Z,0
2017-04-13T01:30:27.555Z,0
2017-04-13T01:30:53.636Z,0
2017-04-13T01:31:19.715Z,0
2017-04-13T01:31:45.797Z,0
2017-04-13T01:32:11.923Z,0
2017-04-13T01:32:38.026Z,0
2017-04-13T01:33:04.112Z,0
2017-04-13T01:33:30.243Z,0
2017-04-13T01:33:56.346Z,0
2017-04-13T01:34:22.451Z,0
2017-04-13T01:34:48.554Z,0
2017-04-13T01:35:14.656Z,0
2017-04-13T01:35:40.737Z,0
2017-04-13T01:36:06.820Z,0
2017-04-13T01:36:32.925Z,0
2017-04-13T01:36:59.005Z,0
2017-04-13T01:37:25.088Z,0
2017-04-13T01:37:51.218Z,0
2017-04-13T01:38:17.322Z,0
2017-04-13T01:38:43.425Z,0
2017-04-13T01:39:09.553Z,0
2017-04-13T01:39:35.674Z,0
2017-04-13T01:40:01.783Z,0
2017-04-13T01:40:27.927Z,0
2017-04-13T01:40:54.011Z,0
2017-04-13T01:41:20.092Z,0
2017-04-13T01:41:46.175Z,0
2017-04-13T01:42:12.304Z,0
2017-04-13T01:42:38.383Z,0
2017-04-13T01:43:04.489Z,0
2017-04-13T01:43:30.571Z,0
2017-04-13T01:43:56.651Z,0
2017-04-13T01:44:22.784Z,0
2017-04-13T01:44:48.866Z,0
2017-04-13T01:45:14.945Z,0
2017-04-13T01:45:41.025Z,0
2017-04-13T01:46:07.106Z,0
2017-04-13T01:46:33.189Z,0
2017-04-13T01:46:59.274Z,0
2017-04-13T01:47:25.355Z,0
2017-04-13T01:47:51.459Z,0
2017-04-13T01:48:17.541Z,0
2017-04-13T01:48:43.627Z,0
2017-04-13T01:49:09.733Z,0
2017-04-13T01:49:35.837Z,0
2017-04-13T01:50:01.920Z,0
2017-04-13T01:50:28.023Z,0
2017-04-13T01:50:54.128Z,0
2017-04-13T01:51:20.212Z,0
2017-04-13T01:51:46.295Z,0
2017-04-13T01:52:12.400Z,0
2017-04-13T01:52:38.504Z,0
2017-04-13T01:53:04.633Z,0
2017-04-13T01:53:30.739Z,0
2017-04-13T01:53:56.866Z,0
2017-04-13T01:54:22.970Z,0
2017-04-13T01:54:49.075Z,0
2017-04-13T01:55:15.203Z,0
2017-04-13T01:55:41.309Z,0
2017-04-13T01:56:07.392Z,0
2017-04-13T01:56:33.471Z,0
2017-04-13T01:56:59.572Z,0
2017-04-13T01:57:25.662Z,0
2017-04-13T01:57:51.813Z,0
2017-04-13T01:58:17.920Z,0
2017-04-13T01:58:44.028Z,0
2017-04-13T01:59:10.108Z,0
2017-04-13T01:59:36.215Z,0
2017-04-13T02:00:02.365Z,0
2017-04-13T02:00:28.447Z,0
2017-04-13T02:00:54.529Z,0
2017-04-13T02:01:20.610Z,0
2017-04-13T02:01:46.691Z,0
2017-04-13T02:02:12.775Z,0
2017-04-13T02:02:38.857Z,0
2017-04-13T02:03:04.938Z,0
2017-04-13T02:03:31.020Z,0
2017-04-13T02:03:57.101Z,0
2017-04-13T02:04:23.235Z,0
2017-04-13T02:04:49.316Z,0
2017-04-13T02:05:15.573Z,0
2017-04-13T02:05:41.656Z,0
2017-04-13T02:06:07.762Z,0
2017-04-13T02:06:33.846Z,0
2017-04-13T02:06:59.953Z,0
2017-04-13T02:07:26.058Z,0
2017-04-13T02:07:52.162Z,0
2017-04-13T02:08:18.245Z,0
2017-04-13T02:08:44.373Z,0
2017-04-13T02:09:10.453Z,0
2017-04-13T02:09:36.557Z,0
2017-04-13T02:10:02.640Z,0
2017-04-13T02:10:28.721Z,0
2017-04-13T02:10:54.823Z,0
2017-04-13T02:11:20.926Z,0
2017-04-13T02:11:47.009Z,0
2017-04-13T02:12:13.137Z,0
2017-04-13T02:12:39.267Z,0
2017-04-13T02:13:05.397Z,0
2017-04-13T02:13:31.528Z,0
2017-04-13T02:13:57.611Z,0
2017-04-13T02:14:23.716Z,0
2017-04-13T02:14:49.820Z,0
2017-04-13T02:15:15.948Z,0
2017-04-13T02:15:42.051Z,0
2017-04-13T02:16:08.132Z,0
2017-04-13T02:16:34.261Z,0
2017-04-13T02:17:00.392Z,0
2017-04-13T02:17:26.474Z,0
2017-04-13T02:17:52.559Z,0
2017-04-13T02:18:18.688Z,0
2017-04-13T02:18:44.795Z,0
2017-04-13T02:19:10.924Z,0
2017-04-13T02:19:37.006Z,0
2017-04-13T02:20:03.162Z,0
2017-04-13T02:20:29.286Z,0
2017-04-13T02:20:55.414Z,0
2017-04-13T02:21:21.496Z,0
2017-04-13T02:21:47.609Z,0
2017-04-13T02:22:13.705Z,0
2017-04-13T02:22:39.788Z,0
2017-04-13T02:23:05.914Z,0
2017-04-13T02:23:32.016Z,0
2017-04-13T02:23:58.098Z,0
2017-04-13T02:24:24.327Z,0
2017-04-13T02:24:50.415Z,0
2017-04-13T02:25:16.492Z,0
2017-04-13T02:25:42.574Z,0
2017-04-13T02:26:08.757Z,0
2017-04-13T02:26:34.839Z,0
2017-04-13T02:27:00.917Z,0
2017-04-13T02:27:27.025Z,0
2017-04-13T02:27:53.106Z,0
2017-04-13T02:28:19.210Z,0
2017-04-13T02:28:45.324Z,0
2017-04-13T02:29:11.407Z,0
2017-04-13T02:29:37.510Z,0
2017-04-13T02:30:03.614Z,0
2017-04-13T02:30:29.720Z,0
2017-04-13T02:30:55.806Z,0
2017-04-13T02:31:21.935Z,0
2017-04-13T02:31:48.065Z,0
2017-04-13T02:32:14.173Z,0
2017-04-13T02:32:40.302Z,0
2017-04-13T02:33:06.386Z,0
2017-04-13T02:33:32.516Z,0
2017-04-13T02:33:58.595Z,0
2017-04-13T02:34:24.678Z,0
2017-04-13T02:34:50.785Z,0
2017-04-13T02:35:16.863Z,0
2017-04-13T02:35:42.968Z,0
2017-04-13T02:36:09.052Z,0
2017-04-13T02:36:35.153Z,0
2017-04-13T02:37:01.237Z,0
2017-04-13T02:37:27.318Z,0
2017-04-13T02:37:53.423Z,0
2017-04-13T02:38:19.503Z,0
2017-04-13T02:38:45.584Z,0
2017-04-13T02:39:11.668Z,0
2017-04-13T02:39:37.758Z,0
2017-04-13T02:40:03.841Z,0
2017-04-13T02:40:29.923Z,0
2017-04-13T02:40:56.005Z,0
2017-04-13T02:41:22.086Z,0
2017-04-13T02:41:48.193Z,0
2017-04-13T02:42:14.277Z,0
2017-04-13T02:42:40.363Z,0
2017-04-13T02:43:06.440Z,0
2017-04-13T02:43:32.522Z,0
2017-04-13T02:43:58.648Z,0
2017-04-13T02:44:24.734Z,0
2017-04-13T02:44:50.840Z,0
2017-04-13T02:45:16.923Z,0
2017-04-13T02:45:43.028Z,0
2017-04-13T02:46:09.132Z,0
2017-04-13T02:46:35.237Z,0
2017-04-13T02:47:01.321Z,0
2017-04-13T02:47:27.440Z,0
2017-04-13T02:47:53.541Z,0
2017-04-13T02:48:19.625Z,0
2017-04-13T02:48:45.707Z,0
2017-04-13T02:49:11.813Z,0
2017-04-13T02:49:37.918Z,0
2017-04-13T02:50:04.044Z,0
2017-04-13T02:50:30.123Z,0
2017-04-13T02:50:56.207Z,0
2017-04-13T02:51:22.335Z,0
2017-04-13T02:51:48.416Z,0
2017-04-13T02:52:14.522Z,0
2017-04-13T02:52:40.628Z,0
2017-04-13T02:53:06.710Z,0
2017-04-13T02:53:32.818Z,0
2017-04-13T02:53:58.896Z,0
2017-04-13T02:54:24.977Z,0
2017-04-13T02:54:51.057Z,0
2017-04-13T02:55:17.141Z,0
2017-04-13T02:55:43.241Z,0
2017-04-13T02:56:09.325Z,0
2017-04-13T02:56:35.429Z,0
2017-04-13T02:57:01.511Z,0
2017-04-13T02:57:27.593Z,0
2017-04-13T02:57:53.673Z,0
2017-04-13T02:58:19.755Z,0
2017-04-13T02:58:45.836Z,0
2017-04-13T02:59:11.940Z,0
2017-04-13T02:59:38.048Z,0
2017-04-13T03:00:04.154Z,0
2017-04-13T03:00:30.261Z,0
2017-04-13T03:00:56.345Z,0
2017-04-13T03:01:22.428Z,0
2017-04-13T03:01:48.511Z,0
2017-04-13T03:02:14.591Z,0
2017-04-13T03:02:40.697Z,0
2017-04-13T03:03:06.777Z,0
2017-04-13T03:03:32.859Z,0
2017-04-13T03:03:58.942Z,0
2017-04-13T03:04:25.025Z,0
2017-04-13T03:04:51.227Z,0
2017-04-13T03:05:17.334Z,0
2017-04-13T03:05:43.438Z,0
2017-04-13T03:06:09.521Z,0
2017-04-13T03:06:35.602Z,0
2017-04-13T03:07:01.706Z,0
2017-04-13T03:07:27.814Z,0
2017-04-13T03:07:53.921Z,0
2017-04-13T03:08:20.025Z,0
2017-04-13T03:08:46.106Z,0
2017-04-13T03:09:12.188Z,0
2017-04-13T03:09:38.271Z,0
2017-04-13T03:10:04.376Z,0
2017-04-13T03:10:30.460Z,0
2017-04-13T03:10:56.566Z,0
2017-04-13T03:11:22.696Z,0
2017-04-13T03:11:48.773Z,0
2017-04-13T03:12:14.856Z,0
2017-04-13T03:12:40.938Z,0
2017-04-13T03:13:07.069Z,0
2017-04-13T03:13:33.175Z,0
2017-04-13T03:13:59.305Z,0
2017-04-13T03:14:25.407Z,0
2017-04-13T03:14:51.511Z,0
2017-04-13T03:15:17.616Z,0
2017-04-13T03:15:43.702Z,0
2017-04-13T03:16:09.828Z,0
2017-04-13T03:16:35.934Z,0
2017-04-13T03:17:02.017Z,0
2017-04-13T03:17:28.142Z,0
2017-04-13T03:17:54.271Z,0
2017-04-13T03:18:20.376Z,0
2017-04-13T03:18:46.522Z,0
2017-04-13T03:19:12.629Z,0
2017-04-13T03:19:38.832Z,0
2017-04-13T03:20:04.939Z,0
2017-04-13T03:20:31.076Z,0
2017-04-13T03:20:57.231Z,0
2017-04-13T03:21:23.337Z,0
2017-04-13T03:21:49.444Z,0
2017-04-13T03:22:15.573Z,0
2017-04-13T03:22:41.654Z,0
2017-04-13T03:23:07.759Z,0
2017-04-13T03:23:33.887Z,0
2017-04-13T03:24:00.041Z,0
2017-04-13T03:24:26.146Z,0
2017-04-13T03:24:52.250Z,0
2017-04-13T03:25:18.356Z,0
2017-04-13T03:25:44.461Z,0
2017-04-13T03:26:10.569Z,0
2017-04-13T03:26:36.803Z,0
2017-04-13T03:27:02.884Z,0
2017-04-13T03:27:29.011Z,0
2017-04-13T03:27:55.117Z,0
2017-04-13T03:28:21.228Z,0
2017-04-13T03:28:47.358Z,0
2017-04-13T03:29:13.481Z,0
2017-04-13T03:29:39.588Z,0
2017-04-13T03:30:05.717Z,0
2017-04-13T03:30:31.798Z,0
2017-04-13T03:30:57.879Z,0
2017-04-13T03:31:23.960Z,0
2017-04-13T03:31:50.044Z,0
2017-04-13T03:32:16.126Z,0
2017-04-13T03:32:42.208Z,0
2017-04-13T03:33:08.289Z,0
2017-04-13T03:33:34.394Z,0
2017-04-13T03:34:00.498Z,0
2017-04-13T03:34:26.606Z,0
2017-04-13T03:34:52.712Z,0
2017-04-13T03:35:18.792Z,0
2017-04-13T03:35:44.877Z,0
2017-04-13T03:36:10.981Z,0
2017-04-13T03:36:37.064Z,0
2017-04-13T03:37:03.146Z,0
2017-04-13T03:37:29.227Z,0
2017-04-13T03:37:55.333Z,0
2017-04-13T03:38:21.539Z,0
2017-04-13T03:38:47.620Z,0
2017-04-13T03:39:13.702Z,0
2017-04-13T03:39:39.784Z,0
2017-04-13T03:40:05.889Z,0
2017-04-13T03:40:31.973Z,0
2017-04-13T03:40:58.055Z,0
2017-04-13T03:41:24.133Z,0
2017-04-13T03:41:50.238Z,0
2017-04-13T03:42:16.320Z,0
2017-04-13T03:42:42.405Z,0
2017-04-13T03:43:08.485Z,0
2017-04-13T03:43:34.592Z,0
2017-04-13T03:44:00.671Z,0
2017-04-13T03:44:26.757Z,0
2017-04-13T03:44:52.859Z,0
2017-04-13T03:45:18.943Z,0
2017-04-13T03:45:45.023Z,0
2017-04-13T03:46:11.107Z,0
2017-04-13T03:46:37.211Z,0
2017-04-13T03:47:03.294Z,0
2017-04-13T03:47:29.400Z,0
2017-04-13T03:47:55.480Z,0
2017-04-13T03:48:21.563Z,0
2017-04-13T03:48:47.646Z,0
2017-04-13T03:49:13.754Z,0
2017-04-13T03:49:39.905Z,0
2017-04-13T03:50:05.991Z,0
2017-04-13T03:50:32.072Z,0
2017-04-13T03:50:58.173Z,0
2017-04-13T03:51:24.257Z,0
2017-04-13T03:51:50.338Z,0
2017-04-13T03:52:16.516Z,0
2017-04-13T03:52:42.597Z,0
2017-04-13T03:53:08.751Z,0
2017-04-13T03:53:34.858Z,0
2017-04-13T03:54:00.941Z,0
2017-04-13T03:54:27.071Z,0
2017-04-13T03:54:53.198Z,0
2017-04-13T03:55:19.304Z,0
2017-04-13T03:55:45.408Z,0
2017-04-13T03:56:11.536Z,0
2017-04-13T03:56:37.617Z,0
2017-04-13T03:57:03.701Z,0
2017-04-13T03:57:29.784Z,0
2017-04-13T03:57:55.891Z,0
2017-04-13T03:58:21.971Z,0
2017-04-13T03:58:48.099Z,0
2017-04-13T03:59:14.377Z,0
2017-04-13T03:59:40.483Z,0
2017-04-13T04:00:06.937Z,0
2017-04-13T04:00:33.046Z,0
2017-04-13T04:00:59.149Z,0
2017-04-13T04:01:25.228Z,0
2017-04-13T04:01:51.311Z,0
2017-04-13T04:02:17.417Z,0
2017-04-13T04:02:43.499Z,0
2017-04-13T04:03:09.579Z,0
2017-04-13T04:03:35.663Z,0
2017-04-13T04:04:01.743Z,0
2017-04-13T04:04:27.824Z,0
2017-04-13T04:04:53.932Z,0
2017-04-13T04:05:20.014Z,4
2017-04-13T04:05:46.094Z,4
2017-04-13T04:06:12.200Z,4
2017-04-13T04:06:38.334Z,4
2017-04-13T04:07:04.414Z,4
2017-04-13T04:07:30.494Z,4
2017-04-13T04:07:56.576Z,0
2017-04-13T04:08:22.760Z,0
2017-04-13T04:08:48.841Z,4
2017-04-13T04:09:14.923Z,4
2017-04-13T04:09:41.008Z,4
2017-04-13T04:10:07.090Z,4
2017-04-13T04:10:33.194Z,4
2017-04-13T04:10:59.275Z,4
2017-04-13T04:11:25.355Z,4
2017-04-13T04:11:51.537Z,4
2017-04-13T04:12:17.644Z,4
2017-04-13T04:12:43.724Z,8
2017-04-13T04:13:09.807Z,4
2017-04-13T04:13:35.886Z,8
2017-04-13T04:14:02.017Z,4
2017-04-13T04:14:28.097Z,8
2017-04-13T04:14:54.203Z,12
2017-04-13T04:15:20.335Z,8
2017-04-13T04:15:46.420Z,8
2017-04-13T04:16:12.503Z,8
2017-04-13T04:16:38.586Z,8
2017-04-13T04:17:04.689Z,12
2017-04-13T04:17:30.793Z,12
2017-04-13T04:17:56.897Z,16
2017-04-13T04:18:23.004Z,16
2017-04-13T04:18:49.086Z,20
2017-04-13T04:19:15.217Z,16
2017-04-13T04:19:41.321Z,20
2017-04-13T04:20:07.468Z,20
2017-04-13T04:20:33.550Z,24
2017-04-13T04:20:59.630Z,24
2017-04-13T04:21:25.770Z,24
2017-04-13T04:21:51.863Z,28
2017-04-13T04:22:17.969Z,28
2017-04-13T04:22:44.074Z,28
2017-04-13T04:23:10.156Z,32
2017-04-13T04:23:36.236Z,32
2017-04-13T04:24:02.321Z,40
2017-04-13T04:24:28.402Z,40
2017-04-13T04:24:54.483Z,40
2017-04-13T04:25:20.590Z,44
2017-04-13T04:25:46.672Z,44
2017-04-13T04:26:12.754Z,48
2017-04-13T04:26:38.835Z,52
2017-04-13T04:27:04.941Z,52
2017-04-13T04:27:31.093Z,56
2017-04-13T04:27:57.224Z,60
2017-04-13T04:28:23.309Z,64
2017-04-13T04:28:49.389Z,68
2017-04-13T04:29:15.473Z,72
2017-04-13T04:29:41.554Z,76
2017-04-13T04:30:07.635Z,80
2017-04-13T04:30:33.718Z,88
2017-04-13T04:30:59.823Z,92
2017-04-13T04:31:25.904Z,96
2017-04-13T04:31:51.987Z,104
2017-04-13T04:32:18.072Z,108
2017-04-13T04:32:44.149Z,116
2017-04-13T04:33:10.333Z,120
2017-04-13T04:33:36.416Z,124
2017-04-13T04:34:02.498Z,132
2017-04-13T04:34:28.583Z,140
2017-04-13T04:34:54.764Z,140
2017-04-13T04:35:20.849Z,148
2017-04-13T04:35:46.953Z,152
2017-04-13T04:36:13.038Z,160
2017-04-13T04:36:39.116Z,172
2017-04-13T04:37:05.199Z,180
2017-04-13T04:37:31.282Z,184
2017-04-13T04:37:57.439Z,196
2017-04-13T04:38:23.538Z,200
2017-04-13T04:38:49.618Z,208
2017-04-13T04:39:15.723Z,216
2017-04-13T04:39:41.850Z,224
2017-04-13T04:40:07.931Z,228
2017-04-13T04:40:34.015Z,236
2017-04-13T04:41:00.097Z,240
2017-04-13T04:41:26.202Z,248
2017-04-13T04:41:52.286Z,256
2017-04-13T04:42:18.388Z,268
2017-04-13T04:42:44.470Z,272
2017-04-13T04:43:10.552Z,280
2017-04-13T04:43:36.698Z,288
2017-04-13T04:44:02.740Z,296
2017-04-13T04:44:28.822Z,308
2017-04-13T04:44:54.903Z,312
2017-04-13T04:45:20.986Z,324
2017-04-13T04:45:47.091Z,332
2017-04-13T04:46:13.194Z,344
2017-04-13T04:46:39.278Z,356
2017-04-13T04:47:05.357Z,372
2017-04-13T04:47:31.441Z,388
2017-04-13T04:47:57.521Z,396
2017-04-13T04:48:23.650Z,412
2017-04-13T04:48:49.729Z,420
2017-04-13T04:49:15.811Z,424
2017-04-13T04:49:41.894Z,436
2017-04-13T04:50:07.972Z,452
2017-04-13T04:50:34.054Z,468
2017-04-13T04:51:00.159Z,476
2017-04-13T04:51:26.239Z,488
2017-04-13T04:51:52.365Z,496
2017-04-13T04:52:18.404Z,504
2017-04-13T04:52:44.487Z,516
2017-04-13T04:53:10.571Z,528
2017-04-13T04:53:36.654Z,544
2017-04-13T04:54:02.736Z,560
2017-04-13T04:54:28.818Z,584
2017-04-13T04:54:54.946Z,604
2017-04-13T04:55:21.073Z,636
2017-04-13T04:55:47.176Z,664
2017-04-13T04:56:13.259Z,700
2017-04-13T04:56:39.341Z,728
2017-04-13T04:57:05.423Z,748
2017-04-13T04:57:31.556Z,780
2017-04-13T04:57:57.637Z,800
2017-04-13T04:58:23.722Z,828
2017-04-13T04:58:49.827Z,848
2017-04-13T04:59:16.007Z,880
2017-04-13T04:59:42.090Z,904
2017-04-13T05:00:08.172Z,920
2017-04-13T05:00:34.273Z,932
2017-04-13T05:01:00.354Z,944
2017-04-13T05:01:26.438Z,960
2017-04-13T05:01:52.519Z,976
2017-04-13T05:02:18.600Z,992
2017-04-13T05:02:44.681Z,1016
2017-04-13T05:03:10.762Z,1028
2017-04-13T05:03:36.844Z,1028
2017-04-13T05:04:02.927Z,1044
2017-04-13T05:04:29.033Z,1052
2017-04-13T05:04:55.113Z,1052
2017-04-13T05:05:21.196Z,1072
2017-04-13T05:05:47.276Z,1084
2017-04-13T05:06:13.357Z,1088
2017-04-13T05:06:39.460Z,1092
2017-04-13T05:07:05.541Z,1128
2017-04-13T05:07:31.623Z,1164
2017-04-13T05:07:57.728Z,1228
2017-04-13T05:08:23.870Z,1256
2017-04-13T05:08:49.962Z,1252
2017-04-13T05:09:16.093Z,1220
2017-04-13T05:09:42.175Z,1272
2017-04-13T05:10:08.263Z,1296
2017-04-13T05:10:34.360Z,1340
2017-04-13T05:11:00.442Z,1368
2017-04-13T05:11:26.522Z,1376
2017-04-13T05:11:52.607Z,1424
2017-04-13T05:12:18.689Z,1512
2017-04-13T05:12:44.769Z,1560
2017-04-13T05:13:10.852Z,1636
2017-04-13T05:13:36.934Z,1692
2017-04-13T05:14:03.016Z,1744
2017-04-13T05:14:29.197Z,1784
2017-04-13T05:14:55.303Z,1812
2017-04-13T05:15:21.387Z,1828
2017-04-13T05:15:47.470Z,1832
2017-04-13T05:16:13.551Z,1816
2017-04-13T05:16:39.633Z,1804
2017-04-13T05:17:05.715Z,1816
2017-04-13T05:17:31.820Z,1824
2017-04-13T05:17:57.902Z,1752
2017-04-13T05:18:23.982Z,1804
2017-04-13T05:18:50.087Z,1860
2017-04-13T05:19:16.171Z,1856
2017-04-13T05:19:42.253Z,1908
2017-04-13T05:20:08.334Z,1940
2017-04-13T05:20:34.415Z,1996
2017-04-13T05:21:00.497Z,2060
2017-04-13T05:21:26.577Z,2092
2017-04-13T05:21:52.658Z,2132
2017-04-13T05:22:18.763Z,2216
2017-04-13T05:22:44.869Z,2272
2017-04-13T05:23:10.948Z,2292
2017-04-13T05:23:37.031Z,2324
2017-04-13T05:24:03.109Z,2352
2017-04-13T05:24:29.192Z,2372
2017-04-13T05:24:55.299Z,2380
2017-04-13T05:25:21.383Z,2436
2017-04-13T05:25:47.558Z,2484
2017-04-13T05:26:13.639Z,2508
2017-04-13T05:26:39.740Z,2532
2017-04-13T05:27:05.847Z,2528
2017-04-13T05:27:31.930Z,2496
2017-04-13T05:27:58.012Z,2540
2017-04-13T05:28:24.117Z,2584
2017-04-13T05:28:50.220Z,2604
2017-04-13T05:29:16.303Z,2648
2017-04-13T05:29:42.411Z,2712
2017-04-13T05:30:08.578Z,2736
2017-04-13T05:30:34.635Z,2768
2017-04-13T05:31:00.716Z,2800
2017-04-13T05:31:26.844Z,2824
2017-04-13T05:31:52.924Z,2876
2017-04-13T05:32:19.033Z,2912
2017-04-13T05:32:45.117Z,2912
2017-04-13T05:33:11.222Z,2920
2017-04-13T05:33:37.303Z,3012
2017-04-13T05:34:03.389Z,3096
2017-04-13T05:34:29.494Z,3168
2017-04-13T05:34:55.573Z,3252
2017-04-13T05:35:21.657Z,3296
2017-04-13T05:35:47.738Z,3332
2017-04-13T05:36:13.841Z,3332
2017-04-13T05:36:39.923Z,3308
2017-04-13T05:37:06.010Z,3344
2017-04-13T05:37:32.112Z,3396
2017-04-13T05:37:58.213Z,3388
2017-04-13T05:38:24.317Z,3412
2017-04-13T05:38:50.400Z,3500
2017-04-13T05:39:16.482Z,3624
2017-04-13T05:39:42.586Z,3652
2017-04-13T05:40:08.668Z,3576
2017-04-13T05:40:34.775Z,3548
2017-04-13T05:41:00.859Z,3708
2017-04-13T05:41:27.282Z,3728
2017-04-13T05:41:53.362Z,3752
2017-04-13T05:42:19.444Z,3864
2017-04-13T05:42:45.551Z,3872
2017-04-13T05:43:11.639Z,3912
2017-04-13T05:43:37.724Z,3960
2017-04-13T05:44:03.806Z,4092
2017-04-13T05:44:29.892Z,4212
2017-04-13T05:44:55.973Z,4112
2017-04-13T05:45:22.055Z,4216
2017-04-13T05:45:48.137Z,4392
2017-04-13T05:46:14.218Z,4304
2017-04-13T05:46:40.299Z,4380
2017-04-13T05:47:06.381Z,4476
2017-04-13T05:47:32.463Z,4528
2017-04-13T05:47:58.568Z,4548
2017-04-13T05:48:24.652Z,4544
2017-04-13T05:48:50.758Z,4688
2017-04-13T05:49:16.864Z,4740
2017-04-13T05:49:42.945Z,4600
2017-04-13T05:50:09.030Z,4664
2017-04-13T05:50:35.232Z,4716
2017-04-13T05:51:01.313Z,4732
2017-04-13T05:51:27.394Z,4860
2017-04-13T05:51:53.477Z,4948
2017-04-13T05:52:19.559Z,4916
2017-04-13T05:52:45.641Z,4664
2017-04-13T05:53:11.723Z,4496
2017-04-13T05:53:37.808Z,4420
2017-04-13T05:54:03.991Z,4392
2017-04-13T05:54:30.095Z,4252
2017-04-13T05:54:56.202Z,4000
2017-04-13T05:55:22.307Z,3784
2017-04-13T05:55:48.390Z,3712
2017-04-13T05:56:14.521Z,3604
2017-04-13T05:56:40.626Z,3760
2017-04-13T05:57:06.730Z,3972
2017-04-13T05:57:32.811Z,3928
2017-04-13T05:57:58.894Z,3616
2017-04-13T05:58:25.003Z,3476
2017-04-13T05:58:51.085Z,3432
2017-04-13T05:59:17.168Z,3660
2017-04-13T05:59:43.272Z,3652
2017-04-13T06:00:09.377Z,3436
2017-04-13T06:00:35.559Z,3400
2017-04-13T06:01:01.681Z,3368
2017-04-13T06:01:27.770Z,3252
2017-04-13T06:01:54.142Z,3208
2017-04-13T06:02:20.244Z,3500
2017-04-13T06:02:46.324Z,3368
2017-04-13T06:03:12.410Z,3208
2017-04-13T06:03:38.493Z,3208
2017-04-13T06:04:04.574Z,3492
2017-04-13T06:04:30.655Z,3700
2017-04-13T06:04:56.737Z,3908
2017-04-13T06:05:22.873Z,4308
2017-04-13T06:05:48.971Z,4280
2017-04-13T06:06:15.053Z,4692
2017-04-13T06:06:41.134Z,5016
2017-04-13T06:07:07.215Z,4744
2017-04-13T06:07:33.321Z,4536
2017-04-13T06:07:59.399Z,4936
2017-04-13T06:08:25.581Z,5224
2017-04-13T06:08:51.687Z,5112
2017-04-13T06:09:17.770Z,4980
2017-04-13T06:09:43.851Z,4988
2017-04-13T06:10:09.941Z,5108
2017-04-13T06:10:36.025Z,5008
2017-04-13T06:11:02.125Z,5336
2017-04-13T06:11:28.230Z,5904
2017-04-13T06:11:54.312Z,5868
2017-04-13T06:12:20.410Z,5960
2017-04-13T06:12:46.504Z,6312
2017-04-13T06:13:12.587Z,6240
2017-04-13T06:13:38.669Z,6184
2017-04-13T06:14:04.800Z,6532
2017-04-13T06:14:30.882Z,6808
2017-04-13T06:14:56.987Z,7344
2017-04-13T06:15:23.092Z,7608